sensor_id;sensor_type;location;lat;lon;timestamp;pressure;altitude;pressure_sealevel;temperature;humidity
60371;BME280;48550;40.588;49.684;2024-02-26T00:02:18;103816.84;;;1.12;57.10
60371;BME280;48550;40.588;49.684;2024-02-26T00:04:43;103817.75;;;1.15;57.45
60371;BME280;48550;40.588;49.684;2024-02-26T00:07:09;103816.03;;;1.19;57.55
60371;BME280;48550;40.588;49.684;2024-02-26T00:09:35;103822.19;;;1.25;57.13
60371;BME280;48550;40.588;49.684;2024-02-26T00:12:03;103809.16;;;1.24;56.15
60371;BME280;48550;40.588;49.684;2024-02-26T00:14:32;103813.50;;;1.23;55.96
60371;BME280;48550;40.588;49.684;2024-02-26T00:16:58;103806.50;;;1.18;56.53
60371;BME280;48550;40.588;49.684;2024-02-26T00:19:24;103813.31;;;1.08;56.89
60371;BME280;48550;40.588;49.684;2024-02-26T00:21:49;103804.66;;;1.09;56.94
60371;BME280;48550;40.588;49.684;2024-02-26T00:24:15;103807.47;;;1.27;58.17
60371;BME280;48550;40.588;49.684;2024-02-26T00:26:41;103804.81;;;1.21;57.33
60371;BME280;48550;40.588;49.684;2024-02-26T00:29:07;103799.50;;;1.12;57.16
60371;BME280;48550;40.588;49.684;2024-02-26T00:31:32;103811.47;;;0.98;57.28
60371;BME280;48550;40.588;49.684;2024-02-26T00:33:58;103810.53;;;0.93;57.71
60371;BME280;48550;40.588;49.684;2024-02-26T00:36:24;103815.63;;;0.83;57.31
60371;BME280;48550;40.588;49.684;2024-02-26T00:38:50;103814.72;;;0.80;57.52
60371;BME280;48550;40.588;49.684;2024-02-26T00:41:18;103804.19;;;0.70;56.82
60371;BME280;48550;40.588;49.684;2024-02-26T00:43:44;103800.69;;;0.67;56.84
60371;BME280;48550;40.588;49.684;2024-02-26T00:46:10;103811.91;;;0.64;56.81
60371;BME280;48550;40.588;49.684;2024-02-26T00:48:36;103801.50;;;0.64;56.01
60371;BME280;48550;40.588;49.684;2024-02-26T00:51:03;103805.94;;;0.73;56.42
60371;BME280;48550;40.588;49.684;2024-02-26T00:53:31;103805.13;;;0.77;56.18
60371;BME280;48550;40.588;49.684;2024-02-26T00:55:57;103804.19;;;0.70;56.47
60371;BME280;48550;40.588;49.684;2024-02-26T00:58:25;103805.25;;;0.85;55.94
60371;BME280;48550;40.588;49.684;2024-02-26T01:00:50;103810.63;;;0.99;54.80
60371;BME280;48550;40.588;49.684;2024-02-26T01:03:17;103800.38;;;1.14;54.40
60371;BME280;48550;40.588;49.684;2024-02-26T01:05:43;103800.47;;;1.22;54.78
60371;BME280;48550;40.588;49.684;2024-02-26T01:08:09;103790.06;;;1.22;55.47
60371;BME280;48550;40.588;49.684;2024-02-26T01:10:35;103790.00;;;1.17;55.36
60371;BME280;48550;40.588;49.684;2024-02-26T01:13:01;103803.16;;;1.30;55.12
60371;BME280;48550;40.588;49.684;2024-02-26T01:15:27;103802.25;;;1.26;55.16
60371;BME280;48550;40.588;49.684;2024-02-26T01:17:53;103803.91;;;1.18;55.26
60371;BME280;48550;40.588;49.684;2024-02-26T01:20:20;103806.44;;;1.13;54.14
60371;BME280;48550;40.588;49.684;2024-02-26T01:22:46;103794.41;;;1.23;54.49
60371;BME280;48550;40.588;49.684;2024-02-26T01:25:12;103800.38;;;1.14;55.29
60371;BME280;48550;40.588;49.684;2024-02-26T01:27:38;103800.50;;;1.25;56.31
60371;BME280;48550;40.588;49.684;2024-02-26T01:30:04;103802.28;;;1.27;55.60
60371;BME280;48550;40.588;49.684;2024-02-26T01:32:30;103801.34;;;1.24;55.81
60371;BME280;48550;40.588;49.684;2024-02-26T01:34:56;103799.56;;;1.18;55.78
60371;BME280;48550;40.588;49.684;2024-02-26T01:37:22;103798.66;;;1.13;55.38
60371;BME280;48550;40.588;49.684;2024-02-26T01:39:48;103796.84;;;1.09;55.71
60371;BME280;48550;40.588;49.684;2024-02-26T01:42:14;103797.69;;;1.08;55.06
60371;BME280;48550;40.588;49.684;2024-02-26T01:44:39;103795.16;;;1.13;54.95
60371;BME280;48550;40.588;49.684;2024-02-26T01:47:07;103804.78;;;1.20;54.32
60371;BME280;48550;40.588;49.684;2024-02-26T01:49:34;103803.03;;;1.19;54.83
60371;BME280;48550;40.588;49.684;2024-02-26T01:52:01;103803.91;;;1.18;54.76
60371;BME280;48550;40.588;49.684;2024-02-26T01:54:29;103800.53;;;1.28;54.76
60371;BME280;48550;40.588;49.684;2024-02-26T01:56:55;103804.00;;;1.29;54.67
60371;BME280;48550;40.588;49.684;2024-02-26T01:59:22;103797.13;;;1.34;54.47
60371;BME280;48550;40.588;49.684;2024-02-26T02:01:52;103801.53;;;1.42;55.00
60371;BME280;48550;40.588;49.684;2024-02-26T02:04:20;103800.66;;;1.40;55.33
60371;BME280;48550;40.588;49.684;2024-02-26T02:06:47;103803.31;;;1.43;53.91
60371;BME280;48550;40.588;49.684;2024-02-26T02:09:12;103802.41;;;1.43;53.86
60371;BME280;48550;40.588;49.684;2024-02-26T02:11:38;103798.09;;;1.43;54.14
60371;BME280;48550;40.588;49.684;2024-02-26T02:14:04;103808.50;;;1.43;54.31
60371;BME280;48550;40.588;49.684;2024-02-26T02:16:30;103799.88;;;1.51;54.88
60371;BME280;48550;40.588;49.684;2024-02-26T02:18:56;103801.72;;;1.61;55.21
60371;BME280;48550;40.588;49.684;2024-02-26T02:21:22;103799.22;;;1.75;54.95
60371;BME280;48550;40.588;49.684;2024-02-26T02:23:47;103799.31;;;1.84;54.91
60371;BME280;48550;40.588;49.684;2024-02-26T02:26:14;103794.06;;;1.78;54.80
60371;BME280;48550;40.588;49.684;2024-02-26T02:28:41;103796.59;;;1.73;54.70
60371;BME280;48550;40.588;49.684;2024-02-26T02:31:07;103792.25;;;1.71;54.75
60371;BME280;48550;40.588;49.684;2024-02-26T02:33:34;103786.22;;;1.76;54.28
60371;BME280;48550;40.588;49.684;2024-02-26T02:36:00;103794.00;;;1.69;54.58
60371;BME280;48550;40.588;49.684;2024-02-26T02:38:26;103796.66;;;1.79;57.29
60371;BME280;48550;40.588;49.684;2024-02-26T02:40:52;103796.88;;;2.04;55.31
60371;BME280;48550;40.588;49.684;2024-02-26T02:43:18;103789.91;;;2.03;55.10
60371;BME280;48550;40.588;49.684;2024-02-26T02:45:44;103793.38;;;2.05;55.97
60371;BME280;48550;40.588;49.684;2024-02-26T02:48:11;103788.13;;;1.96;56.44
60371;BME280;48550;40.588;49.684;2024-02-26T02:50:37;103792.44;;;1.92;56.20
60371;BME280;48550;40.588;49.684;2024-02-26T02:53:03;103779.38;;;1.85;55.32
60371;BME280;48550;40.588;49.684;2024-02-26T02:55:28;103780.13;;;1.74;55.74
60371;BME280;48550;40.588;49.684;2024-02-26T02:57:54;103784.47;;;1.72;55.35
60371;BME280;48550;40.588;49.684;2024-02-26T03:00:20;103778.38;;;1.72;55.17
60371;BME280;48550;40.588;49.684;2024-02-26T03:02:49;103787.91;;;1.71;55.44
60371;BME280;48550;40.588;49.684;2024-02-26T03:05:14;103781.84;;;1.71;55.08
60371;BME280;48550;40.588;49.684;2024-02-26T03:07:40;103789.78;;;1.83;55.28
60371;BME280;48550;40.588;49.684;2024-02-26T03:10:06;103781.03;;;1.79;54.92
60371;BME280;48550;40.588;49.684;2024-02-26T03:12:33;103788.09;;;1.93;55.68
60371;BME280;48550;40.588;49.684;2024-02-26T03:14:59;103792.56;;;2.08;54.07
60371;BME280;48550;40.588;49.684;2024-02-26T03:17:31;103782.22;;;2.22;53.89
60371;BME280;48550;40.588;49.684;2024-02-26T03:19:56;103785.69;;;2.19;54.41
60371;BME280;48550;40.588;49.684;2024-02-26T03:22:22;103783.94;;;2.15;54.38
60371;BME280;48550;40.588;49.684;2024-02-26T03:24:48;103779.47;;;2.02;52.57
60371;BME280;48550;40.588;49.684;2024-02-26T03:27:14;103788.09;;;1.90;52.67
60371;BME280;48550;40.588;49.684;2024-02-26T03:29:40;103779.31;;;1.78;53.41
60371;BME280;48550;40.588;49.684;2024-02-26T03:32:06;103785.38;;;1.79;54.12
60371;BME280;48550;40.588;49.684;2024-02-26T03:34:32;103783.56;;;1.70;54.55
60371;BME280;48550;40.588;49.684;2024-02-26T03:37:00;103790.53;;;1.71;54.00
60371;BME280;48550;40.588;49.684;2024-02-26T03:39:26;103803.66;;;1.82;52.65
60371;BME280;48550;40.588;49.684;2024-02-26T03:41:52;103795.75;;;1.74;52.28
60371;BME280;48550;40.588;49.684;2024-02-26T03:44:18;103787.09;;;1.75;52.50
60371;BME280;48550;40.588;49.684;2024-02-26T03:46:44;103793.25;;;1.84;53.00
60371;BME280;48550;40.588;49.684;2024-02-26T03:49:09;103790.59;;;1.80;52.21
60371;BME280;48550;40.588;49.684;2024-02-26T03:51:35;103792.28;;;1.74;52.96
60371;BME280;48550;40.588;49.684;2024-02-26T03:54:01;103800.13;;;1.74;52.74
60371;BME280;48550;40.588;49.684;2024-02-26T03:56:27;103782.69;;;1.70;52.57
60371;BME280;48550;40.588;49.684;2024-02-26T03:58:53;103796.72;;;1.84;52.89
60371;BME280;48550;40.588;49.684;2024-02-26T04:01:19;103795.09;;;2.00;52.28
60371;BME280;48550;40.588;49.684;2024-02-26T04:03:45;103808.25;;;2.15;51.63
60371;BME280;48550;40.588;49.684;2024-02-26T04:06:11;103801.38;;;2.28;51.81
60371;BME280;48550;40.588;49.684;2024-02-26T04:08:39;103811.00;;;2.34;51.64
60371;BME280;48550;40.588;49.684;2024-02-26T04:11:05;103807.66;;;2.60;51.06
60371;BME280;48550;40.588;49.684;2024-02-26T04:13:34;103806.03;;;2.80;51.42
60371;BME280;48550;40.588;49.684;2024-02-26T04:16:00;103807.88;;;3.12;51.44
60371;BME280;48550;40.588;49.684;2024-02-26T04:18:27;103807.09;;;3.50;51.82
60371;BME280;48550;40.588;49.684;2024-02-26T04:20:53;103811.47;;;3.76;49.18
60371;BME280;48550;40.588;49.684;2024-02-26T04:23:19;103799.25;;;3.62;48.91
60371;BME280;48550;40.588;49.684;2024-02-26T04:25:45;103807.09;;;3.81;48.63
60371;BME280;48550;40.588;49.684;2024-02-26T04:28:11;103813.03;;;4.76;46.74
60371;BME280;48550;40.588;49.684;2024-02-26T04:30:37;103817.19;;;5.23;45.68
60371;BME280;48550;40.588;49.684;2024-02-26T04:33:04;103816.22;;;5.42;45.57
60371;BME280;48550;40.588;49.684;2024-02-26T04:35:29;103806.38;;;5.74;45.72
60371;BME280;48550;40.588;49.684;2024-02-26T04:37:55;103812.63;;;5.56;45.25
60371;BME280;48550;40.588;49.684;2024-02-26T04:40:21;103822.22;;;5.58;44.58
60371;BME280;48550;40.588;49.684;2024-02-26T04:42:47;103817.72;;;5.76;45.11
60371;BME280;48550;40.588;49.684;2024-02-26T04:45:12;103830.19;;;5.44;44.85
60371;BME280;48550;40.588;49.684;2024-02-26T04:47:38;103820.22;;;5.90;44.27
60371;BME280;48550;40.588;49.684;2024-02-26T04:50:05;103825.28;;;6.14;44.07
60371;BME280;48550;40.588;49.684;2024-02-26T04:52:31;103839.75;;;5.49;43.86
60371;BME280;48550;40.588;49.684;2024-02-26T04:54:56;103840.00;;;4.95;44.76
60371;BME280;48550;40.588;49.684;2024-02-26T04:57:22;103827.97;;;4.40;45.97
60371;BME280;48550;40.588;49.684;2024-02-26T04:59:48;103841.94;;;4.42;45.88
60371;BME280;48550;40.588;49.684;2024-02-26T05:02:13;103837.56;;;4.44;45.49
60371;BME280;48550;40.588;49.684;2024-02-26T05:04:39;103826.28;;;4.02;46.98
60371;BME280;48550;40.588;49.684;2024-02-26T05:07:05;103835.69;;;4.87;46.27
60371;BME280;48550;40.588;49.684;2024-02-26T05:09:31;103827.00;;;8.14;39.02
60371;BME280;48550;40.588;49.684;2024-02-26T05:11:57;103825.38;;;11.34;33.27
60371;BME280;48550;40.588;49.684;2024-02-26T05:14:23;103825.50;;;12.37;31.55
60371;BME280;48550;40.588;49.684;2024-02-26T05:16:49;103834.28;;;13.33;29.33
60371;BME280;48550;40.588;49.684;2024-02-26T05:19:14;103821.25;;;13.71;28.48
60371;BME280;48550;40.588;49.684;2024-02-26T05:21:40;103828.50;;;13.66;27.89
60371;BME280;48550;40.588;49.684;2024-02-26T05:24:08;103821.03;;;11.32;31.41
60371;BME280;48550;40.588;49.684;2024-02-26T05:26:33;103816.75;;;12.58;29.92
60371;BME280;48550;40.588;49.684;2024-02-26T05:28:59;103823.97;;;15.28;26.67
60371;BME280;48550;40.588;49.684;2024-02-26T05:31:26;103817.81;;;14.90;27.15
60371;BME280;48550;40.588;49.684;2024-02-26T05:33:52;103815.59;;;13.13;29.66
60371;BME280;48550;40.588;49.684;2024-02-26T05:36:19;103823.44;;;11.39;31.73
60371;BME280;48550;40.588;49.684;2024-02-26T05:38:45;103828.00;;;9.76;34.98
60371;BME280;48550;40.588;49.684;2024-02-26T05:41:12;103829.06;;;7.95;37.75
60371;BME280;48550;40.588;49.684;2024-02-26T05:43:37;103822.63;;;7.60;39.27
60371;BME280;48550;40.588;49.684;2024-02-26T05:46:03;103824.22;;;8.21;39.38
60371;BME280;48550;40.588;49.684;2024-02-26T05:48:29;103813.88;;;12.64;31.19
60371;BME280;48550;40.588;49.684;2024-02-26T05:50:54;103808.03;;;14.50;28.08
60371;BME280;48550;40.588;49.684;2024-02-26T05:53:22;103812.91;;;15.72;26.56
60371;BME280;48550;40.588;49.684;2024-02-26T05:55:48;103815.81;;;17.03;24.74
60371;BME280;48550;40.588;49.684;2024-02-26T05:58:13;103806.44;;;16.96;24.12
60371;BME280;48550;40.588;49.684;2024-02-26T06:00:39;103806.38;;;15.80;26.59
60371;BME280;48550;40.588;49.684;2024-02-26T06:03:05;103808.09;;;16.81;25.83
60371;BME280;48550;40.588;49.684;2024-02-26T06:05:31;103805.75;;;18.29;27.18
60371;BME280;48550;40.588;49.684;2024-02-26T06:07:57;103808.59;;;14.59;27.61
60371;BME280;48550;40.588;49.684;2024-02-26T06:10:22;103807.50;;;11.96;32.57
60371;BME280;48550;40.588;49.684;2024-02-26T06:12:48;103812.25;;;10.07;35.56
60371;BME280;48550;40.588;49.684;2024-02-26T06:15:14;103811.97;;;9.84;35.73
60371;BME280;48550;40.588;49.684;2024-02-26T06:17:39;103823.13;;;9.21;37.14
60371;BME280;48550;40.588;49.684;2024-02-26T06:20:06;103818.03;;;8.23;40.66
60371;BME280;48550;40.588;49.684;2024-02-26T06:22:32;103814.34;;;7.84;42.13
60371;BME280;48550;40.588;49.684;2024-02-26T06:24:58;103809.34;;;10.18;37.95
60371;BME280;48550;40.588;49.684;2024-02-26T06:27:23;103813.34;;;8.84;39.50
60371;BME280;48550;40.588;49.684;2024-02-26T06:29:49;103814.59;;;8.21;40.75
60371;BME280;48550;40.588;49.684;2024-02-26T06:32:15;103819.25;;;8.53;40.85
60371;BME280;48550;40.588;49.684;2024-02-26T06:34:41;103819.97;;;9.43;39.13
60371;BME280;48550;40.588;49.684;2024-02-26T06:37:08;103813.56;;;9.55;38.15
60371;BME280;48550;40.588;49.684;2024-02-26T06:39:33;103816.06;;;9.22;39.06
60371;BME280;48550;40.588;49.684;2024-02-26T06:41:59;103811.38;;;9.72;39.08
60371;BME280;48550;40.588;49.684;2024-02-26T06:44:27;103808.69;;;12.38;34.78
60371;BME280;48550;40.588;49.684;2024-02-26T06:46:58;103799.25;;;14.09;31.33
60371;BME280;48550;40.588;49.684;2024-02-26T06:49:25;103804.06;;;14.61;29.76
60371;BME280;48550;40.588;49.684;2024-02-26T06:51:50;103807.56;;;15.55;28.94
60371;BME280;48550;40.588;49.684;2024-02-26T06:54:16;103805.84;;;16.57;27.42
60371;BME280;48550;40.588;49.684;2024-02-26T06:56:42;103812.94;;;16.74;27.08
60371;BME280;48550;40.588;49.684;2024-02-26T06:59:08;103810.38;;;17.20;26.46
60371;BME280;48550;40.588;49.684;2024-02-26T07:01:33;103805.97;;;15.33;28.73
60371;BME280;48550;40.588;49.684;2024-02-26T07:03:59;103806.59;;;14.43;30.36
60371;BME280;48550;40.588;49.684;2024-02-26T07:06:27;103805.13;;;15.87;28.42
60371;BME280;48550;40.588;49.684;2024-02-26T07:08:52;103805.66;;;14.44;29.92
60371;BME280;48550;40.588;49.684;2024-02-26T07:11:18;103804.22;;;13.75;30.50
60371;BME280;48550;40.588;49.684;2024-02-26T07:13:48;103796.97;;;14.99;29.17
60371;BME280;48550;40.588;49.684;2024-02-26T07:16:15;103794.47;;;13.96;31.08
60371;BME280;48550;40.588;49.684;2024-02-26T07:18:41;103792.56;;;14.98;29.19
60371;BME280;48550;40.588;49.684;2024-02-26T07:21:07;103807.03;;;13.06;31.78
60371;BME280;48550;40.588;49.684;2024-02-26T07:23:33;103814.97;;;11.00;34.98
60371;BME280;48550;40.588;49.684;2024-02-26T07:25:59;103807.81;;;9.73;37.27
60371;BME280;48550;40.588;49.684;2024-02-26T07:28:26;103796.91;;;8.28;40.35
60371;BME280;48550;40.588;49.684;2024-02-26T07:30:52;103807.19;;;7.36;42.27
60371;BME280;48550;40.588;49.684;2024-02-26T07:33:17;103793.78;;;6.94;43.93
60371;BME280;48550;40.588;49.684;2024-02-26T07:35:43;103804.19;;;7.00;45.91
60371;BME280;48550;40.588;49.684;2024-02-26T07:38:09;103806.53;;;6.53;44.27
60371;BME280;48550;40.588;49.684;2024-02-26T07:40:34;103805.59;;;6.59;44.93
60371;BME280;48550;40.588;49.684;2024-02-26T07:43:01;103804.97;;;6.35;44.19
60371;BME280;48550;40.588;49.684;2024-02-26T07:45:27;103810.19;;;6.40;44.17
60371;BME280;48550;40.588;49.684;2024-02-26T07:47:53;103810.84;;;6.59;44.03
60371;BME280;48550;40.588;49.684;2024-02-26T07:50:18;103805.97;;;6.22;41.46
60371;BME280;48550;40.588;49.684;2024-02-26T07:52:45;103799.75;;;6.33;41.83
60371;BME280;48550;40.588;49.684;2024-02-26T07:55:11;103793.06;;;6.02;42.94
60371;BME280;48550;40.588;49.684;2024-02-26T07:57:36;103797.13;;;6.32;43.26
60371;BME280;48550;40.588;49.684;2024-02-26T08:00:03;103794.47;;;6.35;42.39
60371;BME280;48550;40.588;49.684;2024-02-26T08:02:29;103799.97;;;6.10;43.10
60371;BME280;48550;40.588;49.684;2024-02-26T08:04:55;103793.94;;;6.01;42.86
60371;BME280;48550;40.588;49.684;2024-02-26T08:07:20;103785.88;;;6.21;42.19
60371;BME280;48550;40.588;49.684;2024-02-26T08:09:47;103789.56;;;5.95;43.22
60371;BME280;48550;40.588;49.684;2024-02-26T08:12:12;103792.44;;;5.67;43.51
60371;BME280;48550;40.588;49.684;2024-02-26T08:14:39;103786.47;;;5.50;44.35
60371;BME280;48550;40.588;49.684;2024-02-26T08:17:05;103789.75;;;5.75;44.81
60371;BME280;48550;40.588;49.684;2024-02-26T08:19:31;103776.81;;;5.53;45.64
60371;BME280;48550;40.588;49.684;2024-02-26T08:21:57;103785.72;;;5.31;47.22
60371;BME280;48550;40.588;49.684;2024-02-26T08:24:23;103783.13;;;5.26;48.31
60371;BME280;48550;40.588;49.684;2024-02-26T08:26:49;103775.88;;;5.65;48.25
60371;BME280;48550;40.588;49.684;2024-02-26T08:29:14;103765.31;;;5.73;46.68
60371;BME280;48550;40.588;49.684;2024-02-26T08:31:40;103773.16;;;5.76;46.43
60371;BME280;48550;40.588;49.684;2024-02-26T08:34:06;103762.91;;;5.45;46.57
60371;BME280;48550;40.588;49.684;2024-02-26T08:36:34;103770.94;;;5.20;47.71
60371;BME280;48550;40.588;49.684;2024-02-26T08:39:00;103758.03;;;4.80;48.53
60371;BME280;48550;40.588;49.684;2024-02-26T08:41:26;103759.88;;;4.61;49.37
60371;BME280;48550;40.588;49.684;2024-02-26T08:43:52;103752.09;;;4.46;49.69
60371;BME280;48550;40.588;49.684;2024-02-26T08:46:17;103747.75;;;4.40;49.81
60371;BME280;48550;40.588;49.684;2024-02-26T08:48:43;103746.91;;;4.30;50.33
60371;BME280;48550;40.588;49.684;2024-02-26T08:51:09;103746.94;;;4.18;50.36
60371;BME280;48550;40.588;49.684;2024-02-26T08:53:38;103741.69;;;4.30;50.59
60371;BME280;48550;40.588;49.684;2024-02-26T08:56:04;103741.66;;;4.33;50.85
60371;BME280;48550;40.588;49.684;2024-02-26T08:58:30;103738.19;;;4.34;50.14
60371;BME280;48550;40.588;49.684;2024-02-26T09:00:56;103726.00;;;4.20;50.95
60371;BME280;48550;40.588;49.684;2024-02-26T09:03:23;103719.09;;;3.95;51.94
60371;BME280;48550;40.588;49.684;2024-02-26T09:05:48;103720.00;;;3.90;52.32
60371;BME280;48550;40.588;49.684;2024-02-26T09:08:14;103712.16;;;3.63;51.90
60371;BME280;48550;40.588;49.684;2024-02-26T09:10:40;103714.78;;;3.62;51.25
60371;BME280;48550;40.588;49.684;2024-02-26T09:13:06;103708.69;;;3.68;51.00
60371;BME280;48550;40.588;49.684;2024-02-26T09:15:32;103703.44;;;3.83;50.97
60371;BME280;48550;40.588;49.684;2024-02-26T09:17:57;103689.50;;;3.64;52.27
60371;BME280;48550;40.588;49.684;2024-02-26T09:20:23;103695.63;;;3.60;51.39
60371;BME280;48550;40.588;49.684;2024-02-26T09:22:50;103695.63;;;3.68;51.27
60371;BME280;48550;40.588;49.684;2024-02-26T09:25:19;103700.84;;;3.68;51.91
60371;BME280;48550;40.588;49.684;2024-02-26T09:27:45;103697.34;;;3.76;51.33
60371;BME280;48550;40.588;49.684;2024-02-26T09:30:12;103685.19;;;3.51;51.49
60371;BME280;48550;40.588;49.684;2024-02-26T09:32:39;103685.19;;;3.63;51.45
60371;BME280;48550;40.588;49.684;2024-02-26T09:35:06;103679.94;;;3.72;51.52
60371;BME280;48550;40.588;49.684;2024-02-26T09:37:32;103673.81;;;3.87;50.93
60371;BME280;48550;40.588;49.684;2024-02-26T09:39:58;103677.31;;;3.74;50.69
60371;BME280;48550;40.588;49.684;2024-02-26T09:42:27;103675.59;;;3.53;51.77
60371;BME280;48550;40.588;49.684;2024-02-26T09:44:54;103660.81;;;3.45;52.19
60371;BME280;48550;40.588;49.684;2024-02-26T09:47:23;103665.13;;;3.60;53.01
60371;BME280;48550;40.588;49.684;2024-02-26T09:49:49;103662.53;;;3.68;52.87
60371;BME280;48550;40.588;49.684;2024-02-26T09:52:15;103658.16;;;3.61;51.37
60371;BME280;48550;40.588;49.684;2024-02-26T09:54:46;103661.66;;;3.37;52.18
60371;BME280;48550;40.588;49.684;2024-02-26T09:57:14;103647.75;;;3.41;51.27
60371;BME280;48550;40.588;49.684;2024-02-26T09:59:42;103661.66;;;3.41;50.51
60371;BME280;48550;40.588;49.684;2024-02-26T10:02:18;103650.34;;;3.55;50.16
60371;BME280;48550;40.588;49.684;2024-02-26T10:04:46;103659.06;;;3.48;51.83
60371;BME280;48550;40.588;49.684;2024-02-26T10:07:13;103656.44;;;3.46;52.09
60371;BME280;48550;40.588;49.684;2024-02-26T10:09:40;103650.34;;;3.38;52.78
60371;BME280;48550;40.588;49.684;2024-02-26T10:12:08;103640.78;;;3.35;52.51
60371;BME280;48550;40.588;49.684;2024-02-26T10:14:35;103658.19;;;3.32;52.55
60371;BME280;48550;40.588;49.684;2024-02-26T10:17:02;103646.88;;;3.23;52.63
60371;BME280;48550;40.588;49.684;2024-02-26T10:19:28;103646.88;;;3.23;51.65
60371;BME280;48550;40.588;49.684;2024-02-26T10:22:01;103648.59;;;3.34;52.52
60371;BME280;48550;40.588;49.684;2024-02-26T10:24:29;103641.63;;;3.42;51.74
60371;BME280;48550;40.588;49.684;2024-02-26T10:26:56;103636.41;;;3.42;52.42
60371;BME280;48550;40.588;49.684;2024-02-26T10:29:24;103637.31;;;3.50;52.65
60371;BME280;48550;40.588;49.684;2024-02-26T10:31:51;103634.69;;;3.52;52.13
60371;BME280;48550;40.588;49.684;2024-02-26T10:34:18;103641.63;;;3.54;52.26
60371;BME280;48550;40.588;49.684;2024-02-26T10:36:44;103632.06;;;3.38;52.27
60371;BME280;48550;40.588;49.684;2024-02-26T10:39:12;103633.84;;;3.30;52.38
60371;BME280;48550;40.588;49.684;2024-02-26T10:41:40;103623.38;;;3.17;52.61
60371;BME280;48550;40.588;49.684;2024-02-26T10:44:09;103632.06;;;3.18;52.34
60371;BME280;48550;40.588;49.684;2024-02-26T10:46:36;103632.06;;;3.32;53.25
60371;BME280;48550;40.588;49.684;2024-02-26T10:49:02;103632.06;;;3.35;52.40
60371;BME280;48550;40.588;49.684;2024-02-26T10:51:29;103632.06;;;3.27;53.32
60371;BME280;48550;40.588;49.684;2024-02-26T10:53:57;103626.84;;;3.33;52.70
60371;BME280;48550;40.588;49.684;2024-02-26T10:56:26;103625.09;;;3.43;52.00
60371;BME280;48550;40.588;49.684;2024-02-26T10:58:53;103616.41;;;3.32;52.34
60371;BME280;48550;40.588;49.684;2024-02-26T11:01:21;103618.16;;;3.14;52.21
60371;BME280;48550;40.588;49.684;2024-02-26T11:03:52;103619.91;;;3.06;52.76
60371;BME280;48550;40.588;49.684;2024-02-26T11:06:19;103616.41;;;3.08;53.57
60371;BME280;48550;40.588;49.684;2024-02-26T11:08:53;103611.19;;;3.13;52.73
60371;BME280;48550;40.588;49.684;2024-02-26T11:11:20;103604.25;;;3.15;54.04
60371;BME280;48550;40.588;49.684;2024-02-26T11:13:47;103611.19;;;3.07;53.48
60371;BME280;48550;40.588;49.684;2024-02-26T11:16:21;103607.69;;;2.94;52.86
60371;BME280;48550;40.588;49.684;2024-02-26T11:18:48;103607.69;;;2.89;52.64
60371;BME280;48550;40.588;49.684;2024-02-26T11:21:17;103607.69;;;2.89;52.97
60371;BME280;48550;40.588;49.684;2024-02-26T11:23:53;103605.97;;;2.93;53.57
60371;BME280;48550;40.588;49.684;2024-02-26T11:26:21;103615.53;;;3.00;54.12
60371;BME280;48550;40.588;49.684;2024-02-26T11:28:49;103611.22;;;3.02;53.71
60371;BME280;48550;40.588;49.684;2024-02-26T11:31:16;103603.34;;;3.12;53.84
60371;BME280;48550;40.588;49.684;2024-02-26T11:33:43;103592.03;;;3.05;54.11
60371;BME280;48550;40.588;49.684;2024-02-26T11:36:10;103589.44;;;3.11;54.49
60371;BME280;48550;40.588;49.684;2024-02-26T11:38:37;103581.59;;;3.17;54.94
60371;BME280;48550;40.588;49.684;2024-02-26T11:41:04;103584.22;;;3.16;54.68
60371;BME280;48550;40.588;49.684;2024-02-26T11:44:00;103580.72;;;3.32;54.72
60371;BME280;48550;40.588;49.684;2024-02-26T11:46:31;103594.66;;;3.22;53.30
60371;BME280;48550;40.588;49.684;2024-02-26T11:49:02;103596.41;;;3.11;53.63
60371;BME280;48550;40.588;49.684;2024-02-26T11:51:34;103592.06;;;3.11;53.89
60371;BME280;48550;40.588;49.684;2024-02-26T11:54:00;103593.78;;;3.00;54.40
60371;BME280;48550;40.588;49.684;2024-02-26T11:56:26;103592.94;;;3.02;55.64
60371;BME280;48550;40.588;49.684;2024-02-26T11:59:04;103580.72;;;2.89;54.87
60371;BME280;48550;40.588;49.684;2024-02-26T12:06:48;103586.81;;;3.02;55.13
60371;BME280;48550;40.588;49.684;2024-02-26T12:09:37;103585.97;;;2.94;55.21
60371;BME280;48550;40.588;49.684;2024-02-26T12:12:05;103587.69;;;2.78;55.59
60371;BME280;48550;40.588;49.684;2024-02-26T12:14:51;103585.94;;;2.67;55.98
60371;BME280;48550;40.588;49.684;2024-02-26T12:17:21;103585.94;;;2.67;56.24
60371;BME280;48550;40.588;49.684;2024-02-26T12:19:47;103576.38;;;2.68;56.37
60371;BME280;48550;40.588;49.684;2024-02-26T12:22:13;103578.09;;;2.77;56.43
60371;BME280;48550;40.588;49.684;2024-02-26T12:24:40;103581.59;;;2.71;56.34
60371;BME280;48550;40.588;49.684;2024-02-26T12:27:05;103590.28;;;2.64;56.17
60371;BME280;48550;40.588;49.684;2024-02-26T12:29:32;103583.34;;;2.63;57.05
60371;BME280;48550;40.588;49.684;2024-02-26T12:31:58;103585.06;;;2.68;56.94
60371;BME280;48550;40.588;49.684;2024-02-26T12:34:23;103588.56;;;2.69;56.51
60371;BME280;48550;40.588;49.684;2024-02-26T12:36:49;103590.28;;;2.67;57.49
60371;BME280;48550;40.588;49.684;2024-02-26T12:39:15;103585.06;;;2.68;57.47
60371;BME280;48550;40.588;49.684;2024-02-26T12:41:41;103585.94;;;2.75;57.98
60371;BME280;48550;40.588;49.684;2024-02-26T12:44:08;103591.19;;;2.70;56.15
60371;BME280;48550;40.588;49.684;2024-02-26T12:46:33;103580.72;;;2.72;56.53
60371;BME280;48550;40.588;49.684;2024-02-26T12:48:59;103594.66;;;2.76;56.39
60371;BME280;48550;40.588;49.684;2024-02-26T12:51:29;103589.44;;;2.72;55.97